createdAt,value
2023-05-17T00:02:20.162Z,21.78
2023-05-17T00:04:51.273Z,21.77
2023-05-17T00:07:26.611Z,21.78
2023-05-17T00:10:04.072Z,21.77
2023-05-17T00:12:50.207Z,21.77
2023-05-17T00:15:25.569Z,21.63
2023-05-17T00:18:03.097Z,21.59
2023-05-17T00:20:41.246Z,21.65
2023-05-17T00:23:19.815Z,21.60
2023-05-17T00:26:08.969Z,21.60
2023-05-17T00:28:41.314Z,21.58
2023-05-17T00:31:31.916Z,21.49
2023-05-17T00:34:06.308Z,21.54
2023-05-17T00:36:47.297Z,21.42
2023-05-17T00:39:24.876Z,21.36
2023-05-17T00:42:06.583Z,21.28
2023-05-17T00:44:42.394Z,21.25
2023-05-17T00:47:46.099Z,21.25
2023-05-17T00:50:16.801Z,21.28
2023-05-17T00:53:09.444Z,21.19
2023-05-17T00:55:54.000Z,21.18
2023-05-17T00:58:34.427Z,21.18
2023-05-17T01:01:02.281Z,21.22
2023-05-17T01:03:29.690Z,21.09
2023-05-17T01:05:59.915Z,21.11
2023-05-17T01:08:27.740Z,20.98
2023-05-17T01:11:24.791Z,20.97
2023-05-17T01:14:34.985Z,21.00
2023-05-17T01:17:17.751Z,20.92
2023-05-17T01:19:59.028Z,20.92
2023-05-17T01:23:17.892Z,20.91
2023-05-17T01:26:41.507Z,20.84
2023-05-17T01:29:20.032Z,20.76
2023-05-17T01:31:52.166Z,20.56
2023-05-17T01:34:30.798Z,20.56
2023-05-17T01:37:06.526Z,20.62
2023-05-17T01:39:42.037Z,20.35
2023-05-17T01:42:41.590Z,20.43
2023-05-17T01:45:11.755Z,20.36
2023-05-17T01:48:18.013Z,20.26
2023-05-17T01:50:56.397Z,20.28
2023-05-17T01:53:39.470Z,20.36
2023-05-17T01:56:15.353Z,20.17
2023-05-17T01:58:47.785Z,20.16
2023-05-17T02:01:21.562Z,20.00
2023-05-17T02:04:06.245Z,20.01
2023-05-17T02:06:59.692Z,20.01
2023-05-17T02:09:33.903Z,20.10
2023-05-17T02:12:07.747Z,20.04
2023-05-17T02:14:41.420Z,20.10
2023-05-17T02:17:19.440Z,20.03
2023-05-17T02:19:54.636Z,19.99
2023-05-17T02:22:24.788Z,19.94
2023-05-17T02:24:55.375Z,19.86
2023-05-17T02:27:34.151Z,19.83
2023-05-17T02:30:07.158Z,19.81
2023-05-17T02:32:37.970Z,19.87
2023-05-17T02:35:10.511Z,19.90
2023-05-17T02:37:43.303Z,19.86
2023-05-17T02:40:21.484Z,19.78
2023-05-17T02:42:49.030Z,19.86
2023-05-17T02:45:18.656Z,19.82
2023-05-17T02:47:52.042Z,19.77
2023-05-17T02:50:22.725Z,19.85
2023-05-17T02:52:56.019Z,19.82
2023-05-17T02:55:29.522Z,19.70
2023-05-17T02:58:09.975Z,19.79
2023-05-17T03:03:21.481Z,19.73
2023-05-17T03:05:49.021Z,19.73
2023-05-17T03:08:19.056Z,19.64
2023-05-17T03:10:47.687Z,19.64
2023-05-17T03:13:15.028Z,19.60
2023-05-17T03:15:42.381Z,19.49
2023-05-17T03:18:11.273Z,19.39
2023-05-17T03:20:40.088Z,19.27
2023-05-17T03:23:12.796Z,19.32
2023-05-17T03:25:57.992Z,19.33
2023-05-17T03:28:27.087Z,19.40
2023-05-17T03:30:54.745Z,19.34
2023-05-17T03:33:22.470Z,19.24
2023-05-17T03:35:49.695Z,19.24
2023-05-17T03:38:19.001Z,19.33
2023-05-17T03:40:46.255Z,19.35
2023-05-17T03:43:13.588Z,19.33
2023-05-17T03:45:49.431Z,19.30
2023-05-17T03:48:19.964Z,19.33
2023-05-17T03:50:50.267Z,19.30
2023-05-17T03:53:18.215Z,19.25
2023-05-17T03:55:47.533Z,19.17
2023-05-17T03:58:16.235Z,19.26
2023-05-17T04:00:55.052Z,19.26
2023-05-17T04:03:24.306Z,19.29
2023-05-17T04:05:51.427Z,19.27
2023-05-17T04:08:18.785Z,19.25
2023-05-17T04:10:46.084Z,19.26
2023-05-17T04:13:15.627Z,19.30
2023-05-17T04:15:45.309Z,19.29
2023-05-17T04:18:13.127Z,19.22
2023-05-17T04:20:41.382Z,19.19
2023-05-17T04:23:09.336Z,19.17
2023-05-17T04:25:40.192Z,19.14
2023-05-17T04:28:09.273Z,19.08
2023-05-17T04:33:25.227Z,19.02
2023-05-17T04:35:57.736Z,19.05
2023-05-17T04:38:26.977Z,19.07
2023-05-17T04:41:05.156Z,19.08
2023-05-17T04:43:37.757Z,19.09
2023-05-17T04:46:14.749Z,19.12
2023-05-17T04:48:47.716Z,19.03
2023-05-17T04:51:15.350Z,19.04
2023-05-17T04:53:42.845Z,19.15
2023-05-17T04:56:22.438Z,19.19
2023-05-17T04:58:53.278Z,19.20
2023-05-17T05:01:24.117Z,19.16
2023-05-17T05:03:54.584Z,19.27
2023-05-17T05:06:25.293Z,19.31
2023-05-17T05:08:52.875Z,19.29
2023-05-17T05:11:22.784Z,19.39
2023-05-17T05:13:50.436Z,19.39
2023-05-17T05:16:20.697Z,19.48
2023-05-17T05:18:59.224Z,19.47
2023-05-17T05:21:28.777Z,19.51
2023-05-17T05:23:56.568Z,19.29
2023-05-17T05:26:28.812Z,19.43
2023-05-17T05:28:58.359Z,19.42
2023-05-17T05:31:25.734Z,19.36
2023-05-17T05:34:02.765Z,19.43
2023-05-17T05:36:37.705Z,19.47
2023-05-17T05:39:05.554Z,19.39
2023-05-17T05:41:34.780Z,19.41
2023-05-17T05:44:01.892Z,19.43
2023-05-17T05:46:38.152Z,19.27
2023-05-17T05:49:09.934Z,19.47
2023-05-17T05:51:47.705Z,19.14
2023-05-17T05:54:25.944Z,19.29
2023-05-17T05:57:03.456Z,19.41
2023-05-17T05:59:33.904Z,19.47
2023-05-17T06:02:31.993Z,19.42
2023-05-17T06:05:09.443Z,19.56
2023-05-17T06:10:29.684Z,19.40
2023-05-17T06:13:04.904Z,19.44
2023-05-17T06:15:37.672Z,19.33
2023-05-17T06:18:12.078Z,19.33
2023-05-17T06:20:58.922Z,19.27
2023-05-17T06:23:31.188Z,19.13
2023-05-17T06:26:10.045Z,19.26
2023-05-17T06:28:50.340Z,19.37
2023-05-17T06:31:38.048Z,19.12
2023-05-17T06:34:10.309Z,19.14
2023-05-17T06:36:57.114Z,19.32
2023-05-17T06:39:34.715Z,19.33
2023-05-17T06:42:18.451Z,19.48
2023-05-17T06:44:55.876Z,19.51
2023-05-17T06:47:33.417Z,19.64
2023-05-17T06:50:16.271Z,19.70
2023-05-17T06:53:34.507Z,19.70
2023-05-17T06:56:19.190Z,19.77
2023-05-17T06:59:04.829Z,19.88
2023-05-17T07:01:38.061Z,19.90
2023-05-17T07:04:37.028Z,19.77
2023-05-17T07:07:22.215Z,19.55
2023-05-17T07:10:02.822Z,19.55
2023-05-17T07:12:36.918Z,19.69
2023-05-17T07:15:14.697Z,19.55
2023-05-17T07:18:03.811Z,19.52
2023-05-17T07:20:41.236Z,19.63
2023-05-17T07:23:20.940Z,19.69
2023-05-17T07:29:04.290Z,19.79
2023-05-17T07:31:43.477Z,19.97
2023-05-17T07:34:14.528Z,20.05
2023-05-17T07:36:56.855Z,20.19
2023-05-17T07:39:25.370Z,20.24
2023-05-17T07:42:05.626Z,20.33
2023-05-17T07:47:17.321Z,20.47
2023-05-17T07:50:02.212Z,20.60
2023-05-17T07:52:37.802Z,20.67
2023-05-17T07:55:16.774Z,20.71
2023-05-17T07:57:48.870Z,20.93
2023-05-17T08:00:19.479Z,21.03
2023-05-17T08:03:00.408Z,21.02
2023-05-17T08:05:30.774Z,21.22
2023-05-17T08:08:01.827Z,21.40
2023-05-17T08:10:32.896Z,21.49
2023-05-17T08:13:05.341Z,21.49
2023-05-17T08:15:58.490Z,21.68
2023-05-17T08:18:57.966Z,22.04
2023-05-17T08:22:04.350Z,22.29
2023-05-17T08:24:40.019Z,22.50
2023-05-17T08:27:16.347Z,22.72
2023-05-17T08:29:58.194Z,23.10
2023-05-17T08:32:36.726Z,23.49
2023-05-17T08:35:19.143Z,23.60
2023-05-17T08:38:12.192Z,24.01
2023-05-17T08:41:03.550Z,24.23
2023-05-17T08:43:38.604Z,24.40
2023-05-17T08:46:21.960Z,24.74
2023-05-17T08:49:07.400Z,24.77
2023-05-17T08:52:10.289Z,24.87
2023-05-17T08:55:16.042Z,24.87
2023-05-17T08:58:18.612Z,24.57
2023-05-17T09:00:52.392Z,24.51
2023-05-17T09:03:55.941Z,24.38
2023-05-17T09:07:20.022Z,24.70
2023-05-17T09:09:54.748Z,25.15
2023-05-17T09:12:25.561Z,25.02
2023-05-17T09:14:53.297Z,25.07
2023-05-17T09:17:24.837Z,25.51
2023-05-17T09:20:04.749Z,25.83
2023-05-17T09:22:40.780Z,25.96
2023-05-17T09:25:09.013Z,26.23
2023-05-17T09:27:36.537Z,25.68
2023-05-17T09:30:13.397Z,25.89
2023-05-17T09:32:55.900Z,26.22
2023-05-17T09:35:36.909Z,26.30
2023-05-17T09:38:26.009Z,26.15
2023-05-17T09:41:07.036Z,25.93
2023-05-17T09:43:54.413Z,26.45
2023-05-17T09:46:57.756Z,26.77
2023-05-17T09:49:38.962Z,26.51
2023-05-17T09:52:22.090Z,26.52
2023-05-17T09:54:59.683Z,26.54
2023-05-17T09:57:40.214Z,26.75
2023-05-17T10:00:37.363Z,27.25
2023-05-17T10:03:28.071Z,27.35
2023-05-17T10:06:23.750Z,26.85
2023-05-17T10:09:22.566Z,26.62
2023-05-17T10:11:59.819Z,26.74
2023-05-17T10:14:48.947Z,26.28
2023-05-17T10:17:29.231Z,26.10
2023-05-17T10:20:24.702Z,25.95
2023-05-17T10:23:11.085Z,26.80
2023-05-17T10:25:51.092Z,26.02
2023-05-17T10:28:39.836Z,26.16
2023-05-17T10:31:39.209Z,25.58
2023-05-17T10:34:23.302Z,25.78
2023-05-17T10:36:59.071Z,26.24
2023-05-17T10:39:59.383Z,26.32
2023-05-17T10:42:32.402Z,25.95
2023-05-17T10:45:11.908Z,26.67
2023-05-17T10:47:49.511Z,26.81
2023-05-17T10:50:25.552Z,25.28
2023-05-17T10:52:59.350Z,24.67
2023-05-17T10:56:06.179Z,25.25
2023-05-17T10:58:40.345Z,25.51
2023-05-17T11:01:11.534Z,25.11
2023-05-17T11:03:50.509Z,25.44
2023-05-17T11:06:24.074Z,24.91
2023-05-17T11:09:26.695Z,25.70
2023-05-17T11:12:09.484Z,25.94
2023-05-17T11:15:20.813Z,25.73
2023-05-17T11:17:57.322Z,25.48
2023-05-17T11:20:40.142Z,25.67
2023-05-17T11:23:37.939Z,25.36
2023-05-17T11:26:25.103Z,25.11
2023-05-17T11:32:19.281Z,24.98
2023-05-17T11:35:02.901Z,24.94
2023-05-17T11:37:38.644Z,25.27
2023-05-17T11:40:13.810Z,25.48
2023-05-17T11:42:54.028Z,25.34
2023-05-17T11:45:42.183Z,24.89
2023-05-17T11:48:20.628Z,25.46
2023-05-17T11:51:08.766Z,25.11
2023-05-17T11:53:56.954Z,25.24
2023-05-17T11:56:42.271Z,25.51
2023-05-17T11:59:29.437Z,25.31
2023-05-17T12:02:09.083Z,25.64
2023-05-17T12:04:51.247Z,25.26
2023-05-17T12:07:33.014Z,25.25
2023-05-17T12:10:01.915Z,25.40
2023-05-17T12:12:32.690Z,25.63
2023-05-17T12:15:13.355Z,25.87
2023-05-17T12:18:17.518Z,25.50
2023-05-17T12:21:02.113Z,26.11
2023-05-17T12:23:50.304Z,25.95
2023-05-17T12:26:30.968Z,26.40
2023-05-17T12:29:03.806Z,26.75
2023-05-17T12:31:40.982Z,26.60
2023-05-17T12:34:46.399Z,26.67
2023-05-17T12:37:22.200Z,26.86
2023-05-17T12:40:03.900Z,26.41
2023-05-17T12:42:44.620Z,26.87
2023-05-17T12:45:31.800Z,26.67
2023-05-17T12:48:27.198Z,26.82
2023-05-17T12:51:05.813Z,26.18
2023-05-17T12:54:03.965Z,26.17
2023-05-17T12:56:57.103Z,25.96
2023-05-17T12:59:38.923Z,25.08
2023-05-17T13:02:16.276Z,25.54
2023-05-17T13:05:22.405Z,25.02
2023-05-17T13:08:24.813Z,25.08
2023-05-17T13:13:44.411Z,24.70
2023-05-17T13:16:17.545Z,24.31
2023-05-17T13:19:20.712Z,24.22
2023-05-17T13:21:55.190Z,24.29
2023-05-17T13:24:45.518Z,24.25
2023-05-17T13:27:21.549Z,23.97
2023-05-17T13:30:15.818Z,24.38
2023-05-17T13:33:25.513Z,24.25
2023-05-17T13:35:57.996Z,24.19
2023-05-17T13:38:31.806Z,24.12
2023-05-17T13:41:09.603Z,24.08
2023-05-17T13:44:02.494Z,24.44
2023-05-17T13:46:51.834Z,24.17
2023-05-17T13:49:22.802Z,23.88
2023-05-17T13:52:08.811Z,23.85
2023-05-17T13:54:40.778Z,23.64
2023-05-17T13:57:17.639Z,24.01
2023-05-17T14:00:03.123Z,24.21
2023-05-17T14:02:45.699Z,23.63
2023-05-17T14:05:15.329Z,23.53
2023-05-17T14:07:46.946Z,22.76
2023-05-17T14:10:16.091Z,23.65
2023-05-17T14:13:17.269Z,23.88
2023-05-17T14:15:57.714Z,23.74
2023-05-17T14:21:21.706Z,23.85
2023-05-17T14:23:56.294Z,24.33
2023-05-17T14:26:46.105Z,24.53
2023-05-17T14:29:19.398Z,23.85
2023-05-17T14:31:58.228Z,23.73
2023-05-17T14:34:55.556Z,23.85
2023-05-17T14:38:03.362Z,23.72
2023-05-17T14:40:48.498Z,24.39
2023-05-17T14:43:25.759Z,24.04
2023-05-17T14:46:11.685Z,24.37
2023-05-17T14:49:05.717Z,23.67
2023-05-17T14:51:46.078Z,23.67
2023-05-17T14:55:04.459Z,23.54
2023-05-17T14:57:34.901Z,23.73
2023-05-17T15:00:18.629Z,24.19
2023-05-17T15:03:21.792Z,23.96
2023-05-17T15:06:12.012Z,23.70
2023-05-17T15:08:55.235Z,23.94
2023-05-17T15:11:30.264Z,24.02
2023-05-17T15:14:14.568Z,23.41
2023-05-17T15:16:52.957Z,23.53
2023-05-17T15:19:38.509Z,23.91
2023-05-17T15:22:13.669Z,23.50
2023-05-17T15:25:00.200Z,24.27
2023-05-17T15:27:51.509Z,23.97
2023-05-17T15:30:37.961Z,24.07
2023-05-17T15:33:43.042Z,23.97
2023-05-17T15:36:25.981Z,24.07
2023-05-17T15:39:09.445Z,23.93
2023-05-17T15:41:45.760Z,23.95
2023-05-17T15:44:19.178Z,24.00
2023-05-17T15:47:03.197Z,23.46
2023-05-17T15:49:41.520Z,23.65
2023-05-17T15:52:24.842Z,23.57
2023-05-17T15:55:07.711Z,23.10
2023-05-17T15:58:00.597Z,23.30
2023-05-17T16:00:55.266Z,23.80
2023-05-17T16:03:30.529Z,23.48
2023-05-17T16:09:34.866Z,23.87
2023-05-17T16:12:22.406Z,23.75
2023-05-17T16:15:28.620Z,23.74
2023-05-17T16:18:22.294Z,23.76
2023-05-17T16:21:24.078Z,23.64
2023-05-17T16:24:26.778Z,23.63
2023-05-17T16:27:08.135Z,23.71
2023-05-17T16:29:47.226Z,23.66
2023-05-17T16:32:29.847Z,23.66
2023-05-17T16:35:48.060Z,23.73
2023-05-17T16:38:34.659Z,23.25
2023-05-17T16:41:28.841Z,23.56
2023-05-17T16:44:22.722Z,23.44
2023-05-17T16:47:02.928Z,23.74
2023-05-17T16:49:52.329Z,23.22
2023-05-17T16:55:47.087Z,23.42
2023-05-17T16:58:32.253Z,23.53
2023-05-17T17:01:28.322Z,23.29
2023-05-17T17:04:01.254Z,23.53
2023-05-17T17:06:45.218Z,23.46
2023-05-17T17:09:42.031Z,23.50
2023-05-17T17:12:47.329Z,23.39
2023-05-17T17:15:39.408Z,23.49
2023-05-17T17:18:32.016Z,23.57
2023-05-17T17:21:26.172Z,23.71
2023-05-17T17:24:25.887Z,23.73
2023-05-17T17:27:18.703Z,23.63
2023-05-17T17:30:00.210Z,23.68
2023-05-17T17:32:57.859Z,23.26
2023-05-17T17:35:56.054Z,23.63
2023-05-17T17:38:41.922Z,23.54
2023-05-17T17:41:18.093Z,23.58
2023-05-17T17:44:02.893Z,23.64
2023-05-17T17:46:43.731Z,23.64
2023-05-17T17:49:33.826Z,23.88
2023-05-17T17:52:08.312Z,23.90
2023-05-17T17:54:50.984Z,24.07
2023-05-17T17:57:34.143Z,23.43
2023-05-17T18:00:23.381Z,23.46
2023-05-17T18:03:18.694Z,23.22
2023-05-17T18:05:58.304Z,23.16
2023-05-17T18:09:36.170Z,23.05
2023-05-17T18:12:13.664Z,23.14
2023-05-17T18:15:06.835Z,22.97
2023-05-17T18:18:06.030Z,23.05
2023-05-17T18:20:45.708Z,23.19
2023-05-17T18:23:26.517Z,22.72
2023-05-17T18:26:11.393Z,22.98
2023-05-17T18:29:07.624Z,22.64
2023-05-17T18:31:52.285Z,22.87
2023-05-17T18:34:28.835Z,22.86
2023-05-17T18:37:06.099Z,22.90
2023-05-17T18:40:02.030Z,22.81
2023-05-17T18:42:38.213Z,22.80
2023-05-17T18:45:32.074Z,22.59
2023-05-17T18:48:18.315Z,22.66
2023-05-17T18:51:11.874Z,22.69
2023-05-17T18:53:56.279Z,22.70
2023-05-17T18:56:47.116Z,22.63
2023-05-17T18:59:28.388Z,22.01
2023-05-17T19:02:12.624Z,22.10
2023-05-17T19:04:54.844Z,22.51
2023-05-17T19:10:37.876Z,21.92
2023-05-17T19:13:11.226Z,22.12
2023-05-17T19:15:47.473Z,22.38
2023-05-17T19:18:31.170Z,22.10
2023-05-17T19:21:15.835Z,22.35
2023-05-17T19:24:18.112Z,22.33
2023-05-17T19:27:11.087Z,22.36
2023-05-17T19:29:43.565Z,22.35
2023-05-17T19:32:20.919Z,22.36
2023-05-17T19:34:51.489Z,22.23
2023-05-17T19:37:26.923Z,22.39
2023-05-17T19:40:00.537Z,22.36
2023-05-17T19:42:27.947Z,22.12
2023-05-17T19:44:58.601Z,22.13
2023-05-17T19:47:30.109Z,21.89
2023-05-17T19:50:04.343Z,22.08
2023-05-17T19:52:40.556Z,21.98
2023-05-17T19:55:33.261Z,22.08
2023-05-17T19:58:11.155Z,22.04
2023-05-17T20:00:41.541Z,21.93
2023-05-17T20:03:12.149Z,22.16
2023-05-17T20:05:47.280Z,22.30
2023-05-17T20:08:16.181Z,22.20
2023-05-17T20:10:46.918Z,22.13
2023-05-17T20:13:16.889Z,22.00
2023-05-17T20:15:51.424Z,21.84
2023-05-17T20:18:22.733Z,22.08
2023-05-17T20:21:04.604Z,22.12
2023-05-17T20:23:33.078Z,21.84
2023-05-17T20:26:09.612Z,21.89
2023-05-17T20:28:46.823Z,21.76
2023-05-17T20:31:22.056Z,21.86
2023-05-17T20:33:56.769Z,21.92
2023-05-17T20:36:43.518Z,21.75
2023-05-17T20:39:11.240Z,21.90
2023-05-17T20:41:38.659Z,21.63
2023-05-17T20:44:08.001Z,21.90
2023-05-17T20:46:35.627Z,21.57
2023-05-17T20:49:05.967Z,21.53
2023-05-17T20:51:33.729Z,21.37
2023-05-17T20:54:00.945Z,21.56
2023-05-17T20:56:31.711Z,21.08
2023-05-17T20:59:07.396Z,21.03
2023-05-17T21:01:44.214Z,21.17
2023-05-17T21:04:14.537Z,20.60
2023-05-17T21:06:44.652Z,21.27
2023-05-17T21:09:14.579Z,21.08
2023-05-17T21:12:01.615Z,21.31
2023-05-17T21:14:31.316Z,21.42
2023-05-17T21:16:58.535Z,20.84
2023-05-17T21:19:25.637Z,21.11
2023-05-17T21:21:53.393Z,21.24
2023-05-17T21:24:22.975Z,21.02
2023-05-17T21:26:50.070Z,21.22
2023-05-17T21:29:20.040Z,21.07
2023-05-17T21:31:50.292Z,21.58
2023-05-17T21:34:17.560Z,21.44
2023-05-17T21:36:44.881Z,21.62
2023-05-17T21:39:12.186Z,21.37
2023-05-17T21:41:39.352Z,21.49
2023-05-17T21:44:10.207Z,21.57
2023-05-17T21:46:39.781Z,21.22
2023-05-17T21:49:09.384Z,21.56
2023-05-17T21:51:36.584Z,21.27
2023-05-17T21:54:11.761Z,21.49
2023-05-17T21:56:43.897Z,21.71
2023-05-17T21:59:11.347Z,21.68
2023-05-17T22:01:38.641Z,21.73
2023-05-17T22:04:09.475Z,21.80
2023-05-17T22:06:39.469Z,21.91
2023-05-17T22:09:10.000Z,21.90
2023-05-17T22:11:38.769Z,21.83
2023-05-17T22:14:07.680Z,21.81
2023-05-17T22:16:36.413Z,21.88
2023-05-17T22:19:04.127Z,21.62
2023-05-17T22:21:32.255Z,21.77
2023-05-17T22:24:02.506Z,21.79
2023-05-17T22:26:29.696Z,21.81
2023-05-17T22:28:56.952Z,21.73
2023-05-17T22:31:26.574Z,21.69
2023-05-17T22:33:56.148Z,21.83
2023-05-17T22:36:25.174Z,21.88
2023-05-17T22:38:52.478Z,21.91
2023-05-17T22:41:22.446Z,21.88
2023-05-17T22:43:52.542Z,21.96
2023-05-17T22:46:20.323Z,22.00
2023-05-17T22:48:52.981Z,21.98
2023-05-17T22:51:30.223Z,21.92
2023-05-17T22:53:58.084Z,21.92
2023-05-17T22:56:25.170Z,21.96
2023-05-17T22:58:52.353Z,21.95
2023-05-17T23:01:19.516Z,21.96
2023-05-17T23:03:46.721Z,21.94
2023-05-17T23:06:14.078Z,21.93
2023-05-17T23:08:42.349Z,21.95
2023-05-17T23:11:09.498Z,21.95
2023-05-17T23:13:36.644Z,21.96
2023-05-17T23:16:04.536Z,21.97
2023-05-17T23:18:31.795Z,21.96
2023-05-17T23:21:00.411Z,21.88
2023-05-17T23:23:30.146Z,21.79
2023-05-17T23:25:57.610Z,21.81
2023-05-17T23:28:25.285Z,21.73
2023-05-17T23:30:53.994Z,21.77
2023-05-17T23:33:21.127Z,21.80
2023-05-17T23:35:48.360Z,21.76
2023-05-17T23:38:15.926Z,21.70
2023-05-17T23:40:43.935Z,21.71
2023-05-17T23:43:10.986Z,21.68
2023-05-17T23:45:38.156Z,21.70
2023-05-17T23:48:05.303Z,21.69
2023-05-17T23:50:32.611Z,21.63
2023-05-17T23:53:03.885Z,21.63
2023-05-17T23:55:31.474Z,21.68
2023-05-17T23:57:58.645Z,21.61
